Time;durP1;ratioP1;P1;durP2;ratioP2;P2;SDS_P1;SDS_P2;PMS_P1;PMS_P2;Temp;Humidity;BMP_temperature;BMP_pressure;BME280_temperature;BME280_humidity;BME280_pressure;Samples;Min_cycle;Max_cycle;Signal;HPM_P1;HPM_P2
2022/04/18 00:02:07;;;;;;;0.80;0.80;;;;;;;6.10;100.00;99133.53;5110107;28;20198;-63
2022/04/18 00:04:34;;;;;;;0.70;0.70;;;;;;;6.08;100.00;99122.53;5110082;28;20579;-64
2022/04/18 00:07:01;;;;;;;0.90;0.90;;;;;;;6.03;100.00;99111.59;5110496;28;20202;-63
2022/04/18 00:09:29;;;;;;;0.60;0.60;;;;;;;6.16;100.00;99120.72;5109196;28;20195;-63
2022/04/18 00:11:57;;;;;;;0.73;0.73;;;;;;;6.13;100.00;99118.22;5110579;28;20203;-63
2022/04/18 00:14:24;;;;;;;0.70;0.70;;;;;;;6.00;100.00;99124.38;5109747;28;20202;-63
2022/04/18 00:16:52;;;;;;;0.60;0.60;;;;;;;5.95;100.00;99098.16;5110903;28;20578;-63
2022/04/18 00:19:19;;;;;;;0.80;0.80;;;;;;;6.05;100.00;99120.03;5110527;28;20214;-63
2022/04/18 00:21:46;;;;;;;0.80;0.70;;;;;;;6.12;100.00;99111.44;5110861;28;20630;-63
2022/04/18 00:24:14;;;;;;;0.80;0.80;;;;;;;6.18;100.00;99111.34;5110602;28;20199;-63
2022/04/18 00:26:42;;;;;;;0.70;0.70;;;;;;;6.19;100.00;99107.94;5107207;28;20227;-64
2022/04/18 00:29:09;;;;;;;0.60;0.60;;;;;;;6.16;100.00;99113.06;5112363;28;20281;-64
2022/04/18 00:31:36;;;;;;;0.80;0.80;;;;;;;6.14;100.00;99103.78;5114568;28;20199;-63
2022/04/18 00:34:04;;;;;;;1.13;1.00;;;;;;;6.12;100.00;99106.34;5114499;28;20689;-63
2022/04/18 00:36:31;;;;;;;0.67;0.67;;;;;;;6.07;100.00;99110.69;5114358;28;20282;-64
2022/04/18 00:38:58;;;;;;;0.60;0.60;;;;;;;6.04;100.00;99094.63;5112422;28;20264;-63
2022/04/18 00:41:25;;;;;;;0.87;0.87;;;;;;;6.09;100.00;99098.78;5112786;28;20301;-63
2022/04/18 00:43:53;;;;;;;0.67;0.67;;;;;;;6.07;100.00;99092.88;5114451;28;20194;-63
2022/04/18 00:46:21;;;;;;;0.90;0.90;;;;;;;6.03;100.00;99096.34;5114026;28;20293;-64
2022/04/18 00:48:49;;;;;;;0.90;0.90;;;;;;;6.08;100.00;99091.16;5112158;28;20734;-64
2022/04/18 00:51:21;;;;;;;0.70;0.70;;;;;;;6.08;100.00;99094.53;5114164;28;20711;-64
2022/04/18 00:53:49;;;;;;;0.77;0.77;;;;;;;6.07;100.00;99097.97;5112615;28;20195;-64
2022/04/18 00:56:18;;;;;;;0.60;0.60;;;;;;;6.07;100.00;99082.72;5114247;28;20570;-63
2022/04/18 00:58:47;;;;;;;0.90;0.90;;;;;;;6.10;100.00;99082.66;5113038;28;20199;-63
2022/04/18 01:01:15;;;;;;;0.80;0.80;;;;;;;6.17;100.00;99088.47;5112133;28;20217;-63
2022/04/18 01:03:42;;;;;;;0.90;0.90;;;;;;;6.21;100.00;99079.91;5109776;28;20191;-63
2022/04/18 01:06:10;;;;;;;0.60;0.60;;;;;;;6.21;100.00;99075.66;5111731;28;20203;-64
2022/04/18 01:08:38;;;;;;;0.87;0.87;;;;;;;6.21;100.00;99079.91;5113538;28;20286;-63
2022/04/18 01:11:06;;;;;;;0.73;0.73;;;;;;;6.16;100.00;99077.44;5113423;28;20650;-63
2022/04/18 01:13:41;;;;;;;0.80;0.80;;;;;;;6.17;100.00;99084.19;5113153;28;20203;-64
2022/04/18 01:16:08;;;;;;;0.70;0.70;;;;;;;6.14;100.00;99076.63;5113900;28;20194;-63
2022/04/18 01:18:35;;;;;;;0.70;0.70;;;;;;;6.16;100.00;99072.34;5113424;28;20210;-63
2022/04/18 01:21:04;;;;;;;0.90;0.87;;;;;;;6.19;100.00;99079.09;5113692;28;20221;-63
2022/04/18 01:23:31;;;;;;;0.90;0.90;;;;;;;6.16;100.00;99071.53;5113267;28;20735;-63
2022/04/18 01:29:02;;;;;;;1.10;1.10;;;;;;;6.19;100.00;99062.13;5112348;28;20263;-63
2022/04/18 01:31:30;;;;;;;0.77;0.77;;;;;;;6.24;100.00;99059.47;5110715;28;20191;-63
2022/04/18 01:33:58;;;;;;;1.00;1.00;;;;;;;6.30;100.00;99057.66;5113086;28;20203;-63
2022/04/18 01:36:28;;;;;;;1.10;1.10;;;;;;;6.27;100.00;99033.97;5113243;28;20209;-63
2022/04/18 01:38:56;;;;;;;0.87;0.87;;;;;;;6.39;100.00;99053.28;5112510;28;20778;-63
2022/04/18 01:41:23;;;;;;;0.87;0.87;;;;;;;6.24;100.00;99034.03;5110500;28;20211;-63
2022/04/18 01:43:50;;;;;;;0.90;0.90;;;;;;;6.21;100.00;99029.00;5113010;28;20195;-63
2022/04/18 01:46:18;;;;;;;0.83;0.83;;;;;;;6.32;100.00;99050.00;5113266;28;20198;-63
2022/04/18 01:48:46;;;;;;;0.80;0.80;;;;;;;6.24;100.00;99044.22;5111639;28;20202;-64
2022/04/18 01:51:13;;;;;;;0.90;0.90;;;;;;;6.22;100.00;99039.16;5112104;28;20195;-63
2022/04/18 01:53:42;;;;;;;0.83;0.83;;;;;;;6.15;100.00;99045.22;5112707;28;20293;-64
2022/04/18 01:56:09;;;;;;;0.80;0.80;;;;;;;6.14;100.00;99047.81;5112705;28;20205;-63
2022/04/18 01:58:35;;;;;;;1.20;1.20;;;;;;;6.09;100.00;99049.59;5112710;28;20295;-64
2022/04/18 02:01:03;;;;;;;1.40;1.40;;;;;;;6.06;100.00;99042.84;5111663;28;20598;-63
2022/04/18 02:03:30;;;;;;;1.00;1.00;;;;;;;6.00;100.00;99035.34;5111080;28;20290;-63
2022/04/18 02:05:57;;;;;;;1.37;1.37;;;;;;;6.01;100.00;99037.00;5112094;28;20205;-63
2022/04/18 02:08:26;;;;;;;1.10;1.10;;;;;;;6.04;100.00;99038.66;5112656;28;20221;-64
2022/04/18 02:10:55;;;;;;;1.00;1.00;;;;;;;6.00;100.00;99034.47;5112300;28;20210;-63
2022/04/18 02:13:21;;;;;;;0.90;0.90;;;;;;;6.01;100.00;99026.00;5112601;28;20217;-64
2022/04/18 02:15:48;;;;;;;0.87;0.87;;;;;;;5.97;100.00;99030.31;5108655;28;20199;-63
2022/04/18 02:18:15;;;;;;;0.90;0.90;;;;;;;5.96;100.00;99026.06;5112378;28;20293;-64
2022/04/18 02:20:42;;;;;;;0.77;0.77;;;;;;;5.97;100.00;99025.22;5112305;28;20246;-64
2022/04/18 02:23:09;;;;;;;1.10;1.10;;;;;;;5.98;100.00;99026.88;5111423;28;20641;-63
2022/04/18 02:25:36;;;;;;;1.00;1.00;;;;;;;5.96;100.00;99028.59;5112250;28;20662;-63
2022/04/18 02:28:05;;;;;;;0.80;0.80;;;;;;;5.97;100.00;99025.22;5111953;28;20205;-64
2022/04/18 02:30:32;;;;;;;0.90;0.90;;;;;;;5.97;100.00;99025.22;5112380;28;20282;-63
2022/04/18 02:32:59;;;;;;;1.33;1.33;;;;;;;5.94;100.00;99029.50;5110475;28;20211;-63
2022/04/18 02:35:27;;;;;;;1.00;1.00;;;;;;;5.92;100.00;99034.59;5112035;28;20290;-63
2022/04/18 02:37:55;;;;;;;1.10;1.10;;;;;;;5.85;100.00;99024.56;5111994;28;20730;-64
2022/04/18 02:40:23;;;;;;;1.37;1.37;;;;;;;5.93;100.00;99032.91;5110853;28;20313;-63
2022/04/18 02:42:50;;;;;;;1.10;1.10;;;;;;;5.96;100.00;99025.22;5108704;28;20194;-63
2022/04/18 02:45:19;;;;;;;1.17;1.17;;;;;;;5.95;100.00;99021.84;5111884;28;20281;-63
2022/04/18 02:47:47;;;;;;;1.00;1.00;;;;;;;5.91;100.00;99024.47;5111919;28;20673;-64
2022/04/18 02:50:14;;;;;;;1.50;1.50;;;;;;;5.93;100.00;99025.28;5110421;28;20289;-63
2022/04/18 02:52:42;;;;;;;1.10;1.10;;;;;;;5.98;100.00;99024.31;5111563;28;20190;-63
2022/04/18 02:55:11;;;;;;;1.20;1.20;;;;;;;5.95;100.00;99018.44;5111510;28;20259;-63
2022/04/18 02:57:39;;;;;;;1.10;1.10;;;;;;;5.82;100.00;99000.00;5110441;28;20206;-63
2022/04/18 03:00:08;;;;;;;1.30;1.30;;;;;;;5.98;100.00;99021.78;5108069;28;20701;-63
2022/04/18 03:02:36;;;;;;;1.30;1.20;;;;;;;6.05;100.00;99013.19;5108457;28;20209;-63
2022/04/18 03:05:04;;;;;;;1.40;1.40;;;;;;;6.08;100.00;99015.66;5111412;28;20211;-63
2022/04/18 03:07:31;;;;;;;1.70;1.70;;;;;;;6.07;100.00;99016.53;5111725;28;21681;-63
2022/04/18 03:09:58;;;;;;;1.60;1.60;;;;;;;6.13;100.00;99016.44;5107552;28;20195;-63
2022/04/18 03:12:25;;;;;;;1.20;1.20;;;;;;;6.15;100.00;99018.94;5111450;28;20637;-63
2022/04/18 03:14:52;;;;;;;1.23;1.23;;;;;;;6.14;100.00;99018.09;5110775;28;20290;-63
2022/04/18 03:17:20;;;;;;;1.10;1.10;;;;;;;6.06;100.00;99007.22;5111158;28;20283;-63
2022/04/18 03:19:48;;;;;;;1.43;1.43;;;;;;;6.09;100.00;99014.81;5110397;28;20190;-63
2022/04/18 03:22:15;;;;;;;1.40;1.40;;;;;;;6.05;100.00;99013.19;5111348;28;20210;-64
2022/04/18 03:24:42;;;;;;;1.70;1.70;;;;;;;6.05;100.00;99013.19;5111124;28;20190;-63
2022/04/18 03:27:09;;;;;;;1.60;1.53;;;;;;;6.10;100.00;99015.66;5110533;28;20277;-64
2022/04/18 03:29:37;;;;;;;1.37;1.37;;;;;;;6.14;100.00;99007.09;5111279;28;20194;-63
2022/04/18 03:32:05;;;;;;;1.27;1.27;;;;;;;6.18;100.00;99009.53;5111102;28;20240;-63
2022/04/18 03:34:32;;;;;;;1.83;1.73;;;;;;;6.14;100.00;98996.91;5111075;28;20281;-63
2022/04/18 03:39:54;;;;;;;1.17;1.17;;;;;;;6.18;100.00;99004.44;5108224;28;20774;-63
2022/04/18 03:42:32;;;;;;;1.30;1.30;;;;;;;6.16;100.00;99001.09;5109020;28;20271;-63
2022/04/18 03:45:00;;;;;;;1.57;1.47;;;;;;;6.18;100.00;98999.34;5110573;28;20291;-63
2022/04/18 03:47:27;;;;;;;1.30;1.30;;;;;;;6.15;100.00;99003.66;5110904;28;20574;-64
2022/04/18 03:49:54;;;;;;;1.20;1.20;;;;;;;6.15;100.00;99001.13;5110109;28;20202;-63
2022/04/18 03:52:24;;;;;;;1.40;1.40;;;;;;;6.22;100.00;99001.00;5107661;28;20729;-64
2022/04/18 03:54:51;;;;;;;1.47;1.47;;;;;;;6.18;100.00;99001.91;5110058;28;20195;-63
2022/04/18 03:57:18;;;;;;;1.00;1.00;;;;;;;6.24;100.00;99004.31;5109624;28;20198;-63
2022/04/18 03:59:45;;;;;;;1.53;1.53;;;;;;;6.25;100.00;99006.00;5108285;28;20290;-63
2022/04/18 04:02:12;;;;;;;1.20;1.20;;;;;;;6.27;100.00;99004.28;5108887;28;20246;-63
2022/04/18 04:04:39;;;;;;;2.07;1.97;;;;;;;6.23;100.00;99007.75;5114783;28;20191;-63
2022/04/18 04:07:06;;;;;;;6.00;5.40;;;;;;;6.14;100.00;98985.00;5114826;28;20613;-64
2022/04/18 04:09:36;;;;;;;3.90;3.60;;;;;;;6.30;100.00;99003.41;5114880;28;20199;-64
2022/04/18 04:12:03;;;;;;;11.17;9.30;;;;;;;6.28;100.00;99005.94;5114783;28;20289;-63
2022/04/18 04:14:30;;;;;;;12.80;11.43;;;;;;;6.33;100.00;99013.50;5114201;28;20198;-63
2022/04/18 04:16:57;;;;;;;5.10;4.80;;;;;;;6.39;100.00;99012.56;5114471;28;20320;-63
2022/04/18 04:19:24;;;;;;;2.13;1.93;;;;;;;6.34;100.00;99017.72;5113217;28;20233;-64
2022/04/18 04:21:51;;;;;;;1.50;1.50;;;;;;;6.17;100.00;98982.41;5112580;28;20219;-64
2022/04/18 04:24:18;;;;;;;1.50;1.50;;;;;;;6.23;100.00;99012.84;5112778;28;20281;-63
2022/04/18 04:26:46;;;;;;;1.93;1.83;;;;;;;6.21;100.00;99019.66;5111381;28;20281;-63
2022/04/18 04:29:13;;;;;;;1.47;1.47;;;;;;;6.27;100.00;99018.69;5112377;28;20301;-63
2022/04/18 04:31:40;;;;;;;1.40;1.40;;;;;;;6.24;100.00;99011.97;5113810;28;20256;-63
2022/04/18 04:34:10;;;;;;;1.70;1.70;;;;;;;6.24;100.00;99011.97;5113784;28;20195;-64
2022/04/18 04:36:37;;;;;;;1.40;1.40;;;;;;;6.27;100.00;99011.91;5114095;28;20225;-64
2022/04/18 04:39:04;;;;;;;1.37;1.37;;;;;;;6.30;100.00;99011.84;5113371;28;20230;-64
2022/04/18 04:41:31;;;;;;;1.70;1.60;;;;;;;6.30;100.00;99013.56;5114437;28;20210;-63
2022/04/18 04:43:59;;;;;;;1.50;1.50;;;;;;;6.24;100.00;99009.41;5113956;28;20206;-64
2022/04/18 04:46:27;;;;;;;1.23;1.23;;;;;;;6.27;100.00;99018.69;5112886;28;20198;-64
2022/04/18 04:48:53;;;;;;;1.30;1.30;;;;;;;6.30;100.00;99016.94;5113843;28;20209;-64
2022/04/18 04:51:20;;;;;;;1.90;1.80;;;;;;;6.36;100.00;99012.59;5112990;28;20300;-63
2022/04/18 04:53:47;;;;;;;1.90;1.87;;;;;;;6.30;100.00;99016.94;5113113;28;20203;-63
2022/04/18 04:56:14;;;;;;;1.73;1.67;;;;;;;6.34;100.00;99016.00;5113055;28;20202;-63
2022/04/18 04:58:41;;;;;;;1.90;1.80;;;;;;;6.38;100.00;99015.94;5113628;28;20670;-64
2022/04/18 05:01:09;;;;;;;2.60;2.40;;;;;;;6.40;100.00;99017.59;5113770;28;20230;-64
2022/04/18 05:03:36;;;;;;;2.10;2.00;;;;;;;6.40;100.00;99019.31;5112533;28;20298;-63
2022/04/18 05:06:03;;;;;;;1.70;1.60;;;;;;;6.39;100.00;99027.81;5113795;28;20286;-63
2022/04/18 05:08:30;;;;;;;1.63;1.63;;;;;;;6.35;100.00;99021.94;5113484;28;20281;-63
2022/04/18 05:10:59;;;;;;;1.60;1.50;;;;;;;6.39;100.00;99031.22;5113150;28;20289;-63
2022/04/18 05:13:26;;;;;;;1.43;1.33;;;;;;;6.44;100.00;99029.41;5112873;28;20219;-64
2022/04/18 05:15:53;;;;;;;1.80;1.70;;;;;;;6.50;100.00;99036.91;5111741;28;20570;-63
2022/04/18 05:18:22;;;;;;;1.63;1.53;;;;;;;6.54;100.00;99036.00;5113319;28;20285;-64
2022/04/18 05:20:49;;;;;;;1.93;1.73;;;;;;;6.63;100.00;99040.06;5113291;28;20215;-64
2022/04/18 05:23:17;;;;;;;1.47;1.47;;;;;;;6.65;100.00;99036.63;5113276;28;20198;-63
2022/04/18 05:25:44;;;;;;;2.50;1.57;;;;;;;6.60;100.00;99043.50;5112814;28;20597;-64
2022/04/18 05:28:11;;;;;;;1.10;1.10;;;;;;;6.64;100.00;99044.28;5113364;28;20194;-63
2022/04/18 05:30:38;;;;;;;1.10;1.10;;;;;;;6.59;100.00;99041.81;5113334;28;20222;-64
2022/04/18 05:33:05;;;;;;;1.23;1.23;;;;;;;6.62;100.00;99043.50;5109035;28;20290;-64
2022/04/18 05:35:33;;;;;;;1.30;1.27;;;;;;;6.68;100.00;99044.22;5112849;28;20289;-64
2022/04/18 05:38:00;;;;;;;1.67;1.67;;;;;;;6.72;100.00;99045.00;5112115;28;20286;-64
2022/04/18 05:40:27;;;;;;;1.43;1.43;;;;;;;6.73;100.00;99044.09;5112910;28;20201;-64
2022/04/18 05:42:54;;;;;;;1.50;1.50;;;;;;;6.64;100.00;99039.19;5113073;28;20311;-64
2022/04/18 05:45:21;;;;;;;1.20;1.20;;;;;;;6.65;100.00;99051.06;5113386;28;20643;-64
2022/04/18 05:47:48;;;;;;;1.30;1.30;;;;;;;6.65;100.00;99045.97;5112694;28;20645;-63
2022/04/18 05:50:15;;;;;;;1.90;1.90;;;;;;;6.67;100.00;99049.31;5112511;28;20285;-64
2022/04/18 05:52:43;;;;;;;3.20;2.33;;;;;;;6.70;100.00;99054.34;5111698;28;20194;-63
2022/04/18 05:55:10;;;;;;;2.90;2.80;;;;;;;6.73;100.00;99055.13;5108855;28;20293;-64
2022/04/18 05:57:37;;;;;;;1.87;1.83;;;;;;;6.78;100.00;99052.50;5112627;28;20294;-62
2022/04/18 06:00:05;;;;;;;1.97;1.87;;;;;;;6.71;100.00;99061.97;5111651;28;20217;-62
2022/04/18 06:02:32;;;;;;;2.10;2.00;;;;;;;6.71;100.00;99056.88;5112771;28;20219;-62
2022/04/18 06:04:59;;;;;;;1.97;1.87;;;;;;;6.65;100.00;99053.63;5108422;28;20199;-62
2022/04/18 06:07:26;;;;;;;2.33;2.23;;;;;;;6.70;100.00;99055.19;5112589;28;20281;-62
2022/04/18 06:09:54;;;;;;;2.60;2.40;;;;;;;6.77;100.00;99061.00;5111322;28;20278;-68
2022/04/18 06:12:22;;;;;;;2.20;2.10;;;;;;;6.80;100.00;99060.94;5106535;28;20298;-63
2022/04/18 06:14:48;;;;;;;1.87;1.77;;;;;;;6.81;100.00;99055.00;5110311;28;20203;-64
2022/04/18 06:17:15;;;;;;;1.33;1.33;;;;;;;6.80;100.00;99060.94;5105904;28;20214;-64
2022/04/18 06:19:42;;;;;;;2.20;2.10;;;;;;;6.81;100.00;99053.28;5107280;28;20567;-63
2022/04/18 06:22:09;;;;;;;1.60;1.60;;;;;;;6.83;100.00;99058.34;5111137;28;20226;-64
2022/04/18 06:24:36;;;;;;;1.37;1.37;;;;;;;6.87;100.00;99062.50;5108686;28;20286;-62
2022/04/18 06:27:05;;;;;;;1.50;1.50;;;;;;;6.90;100.00;99062.44;5109489;28;20298;-63
2022/04/18 06:29:32;;;;;;;1.17;1.17;;;;;;;6.90;100.00;99070.06;5110030;28;20206;-64
2022/04/18 06:31:59;;;;;;;1.00;1.00;;;;;;;6.91;100.00;99069.22;5110639;28;20205;-63
2022/04/18 06:34:27;;;;;;;1.40;1.40;;;;;;;6.94;100.00;99069.16;5111242;28;20670;-67
2022/04/18 06:36:54;;;;;;;1.30;1.20;;;;;;;6.92;100.00;99075.13;5109925;28;20199;-65
2022/04/18 06:39:21;;;;;;;0.90;0.90;;;;;;;6.92;100.00;99075.97;5110352;28;20230;-65
2022/04/18 06:41:48;;;;;;;1.40;1.40;;;;;;;6.96;100.00;99076.75;5109852;28;20229;-64
2022/04/18 06:44:16;;;;;;;1.17;1.17;;;;;;;7.04;100.00;99075.75;5109703;28;20195;-64
2022/04/18 06:46:43;;;;;;;1.30;1.30;;;;;;;7.08;100.00;99087.53;5109756;28;20293;-64
2022/04/18 06:49:10;;;;;;;1.30;1.20;;;;;;;7.13;100.00;99085.72;5104550;28;20199;-64
2022/04/18 06:51:37;;;;;;;1.10;1.10;;;;;;;7.17;100.00;99084.78;5108224;28;20206;-64
2022/04/18 06:54:04;;;;;;;1.00;1.00;;;;;;;7.17;100.00;99084.78;5109509;28;20290;-64
2022/04/18 06:59:25;;;;;;;1.30;1.30;;;;;;;7.21;100.00;99085.53;5074555;28;20205;-65
2022/04/18 07:01:52;;;;;;;1.00;1.00;;;;;;;7.14;100.00;99086.56;5106940;28;20305;-65
2022/04/18 07:04:19;;;;;;;1.00;1.00;;;;;;;7.12;100.00;99099.34;5110220;28;20199;-65
2022/04/18 07:06:46;;;;;;;1.17;1.17;;;;;;;7.15;100.00;99099.28;5109426;28;20195;-66
2022/04/18 07:09:13;;;;;;;1.33;1.33;;;;;;;7.19;100.00;99097.50;5109778;28;20205;-65
2022/04/18 07:11:42;;;;;;;1.10;1.10;;;;;;;7.24;100.00;99099.06;5109258;28;20578;-65
2022/04/18 07:14:09;;;;;;;1.40;1.40;;;;;;;7.27;100.00;99105.84;5110012;28;20206;-65
2022/04/18 07:16:37;;;;;;;1.13;1.13;;;;;;;7.24;100.00;99104.16;5109781;28;20699;-65
2022/04/18 07:19:04;;;;;;;1.23;1.23;;;;;;;7.25;100.00;99100.75;5110112;28;20681;-65
2022/04/18 07:21:31;;;;;;;1.50;1.50;;;;;;;7.27;100.00;99104.09;5109536;28;20250;-64
2022/04/18 07:23:58;;;;;;;1.30;1.30;;;;;;;7.40;100.00;99104.66;5110018;28;20747;-64
2022/04/18 07:26:25;;;;;;;1.17;1.17;;;;;;;7.40;100.00;99110.59;5107988;28;20206;-64
2022/04/18 07:28:53;;;;;;;1.23;1.23;;;;;;;7.44;100.00;99111.38;5107427;28;20286;-64
2022/04/18 07:31:20;;;;;;;1.00;1.00;;;;;;;7.45;100.00;99110.53;5107692;28;20202;-64
2022/04/18 07:33:48;;;;;;;1.37;1.37;;;;;;;7.51;100.00;99109.53;5104588;28;20797;-64
2022/04/18 07:36:15;;;;;;;1.30;1.30;;;;;;;7.48;100.00;99112.16;5106666;28;20941;-64
2022/04/18 07:38:51;;;;;;;1.60;1.50;;;;;;;7.44;100.00;99115.63;5105538;28;20219;-64
2022/04/18 07:41:19;;;;;;;1.30;1.30;;;;;;;7.47;100.00;99115.56;5107626;28;20297;-64
2022/04/18 07:43:46;;;;;;;1.27;1.27;;;;;;;7.51;100.00;99117.19;5108596;28;20199;-65
2022/04/18 07:46:15;;;;;;;1.83;1.83;;;;;;;7.49;100.00;99118.94;5108091;28;20217;-66
2022/04/18 07:48:42;;;;;;;1.60;1.50;;;;;;;7.47;100.00;99121.50;5109157;28;20203;-64
2022/04/18 07:53:55;;;;;;;1.90;1.80;;;;;;;7.48;100.00;99122.34;5108809;28;20229;-64
2022/04/18 07:56:22;;;;;;;1.30;1.30;;;;;;;7.52;100.00;99118.88;5107392;28;20290;-65
2022/04/18 07:58:50;;;;;;;1.67;1.57;;;;;;;7.50;100.00;99121.44;5109208;28;20285;-65
2022/04/18 08:01:17;;;;;;;1.40;1.40;;;;;;;7.42;100.00;99128.44;5109859;28;20203;-64
2022/04/18 08:03:44;;;;;;;1.57;1.50;;;;;;;7.45;100.00;99122.44;5110294;28;20301;-65
2022/04/18 08:06:13;;;;;;;3.60;1.50;;;;;;;7.47;100.00;99130.88;5109126;28;20710;-65
2022/04/18 08:08:40;;;;;;;3.73;1.50;;;;;;;7.45;100.00;99127.53;5110697;28;20539;-64
2022/04/18 08:11:11;;;;;;;1.40;1.40;;;;;;;7.51;100.00;99129.94;5109938;28;20669;-65
2022/04/18 08:13:38;;;;;;;1.30;1.30;;;;;;;7.50;100.00;99130.81;5110675;28;20684;-65
2022/04/18 08:16:05;;;;;;;2.00;1.90;;;;;;;7.49;100.00;99131.69;5109875;28;20201;-65
2022/04/18 08:18:36;;;;;;;1.40;1.40;;;;;;;7.47;100.00;99130.88;5110532;28;20199;-65
2022/04/18 08:21:03;;;;;;;1.20;1.20;;;;;;;7.45;100.00;99124.97;5109737;28;20203;-65
2022/04/18 08:23:32;;;;;;;1.87;1.77;;;;;;;7.46;100.00;99134.31;5110451;28;20214;-65
2022/04/18 08:25:59;;;;;;;1.30;1.30;;;;;;;7.37;100.00;99113.22;5110221;28;20729;-65
2022/04/18 08:28:26;;;;;;;5.53;1.17;;;;;;;7.56;100.00;99140.91;5110489;28;20216;-65
2022/04/18 08:30:53;;;;;;;1.10;1.10;;;;;;;7.60;100.00;99138.22;5110417;28;20285;-64
2022/04/18 08:33:20;;;;;;;1.13;1.13;;;;;;;7.63;100.00;99143.25;5109931;28;20286;-64
2022/04/18 08:35:48;;;;;;;1.47;1.47;;;;;;;7.67;100.00;99138.94;5109765;28;20205;-65
2022/04/18 08:38:15;;;;;;;1.30;1.30;;;;;;;7.70;100.00;99146.50;5109407;28;20290;-65
2022/04/18 08:40:44;;;;;;;1.93;1.83;;;;;;;7.74;100.00;99146.41;5110085;28;20290;-65
2022/04/18 08:43:11;;;;;;;1.60;1.53;;;;;;;7.81;100.00;99145.41;5109266;28;20245;-65
2022/04/18 08:45:39;;;;;;;1.20;1.20;;;;;;;7.87;100.00;99146.97;5105430;28;20285;-64
2022/04/18 08:53:36;;;;;;;1.40;1.40;;;;;;;7.92;100.00;99140.03;5110080;28;20288;-65
2022/04/18 08:56:06;;;;;;;1.30;1.30;;;;;;;8.02;100.00;99151.69;5104137;28;20195;-65
2022/04/18 08:58:33;;;;;;;1.23;1.23;;;;;;;7.98;100.00;99145.00;5112676;28;20622;-65
2022/04/18 09:01:02;;;;;;;1.45;0.90;;;;;;;8.12;100.00;99152.31;5112528;28;20199;-65
2022/04/18 09:03:29;;;;;;;1.10;1.10;;;;;;;8.10;100.00;99149.81;5111483;28;20260;-65
2022/04/18 09:06:08;;;;;;;1.20;1.20;;;;;;;8.06;100.00;99155.03;5108473;28;20722;-65
2022/04/18 09:08:36;;;;;;;1.00;1.00;;;;;;;8.02;100.00;99148.31;5111794;28;20199;-65
2022/04/18 09:11:03;;;;;;;0.83;0.83;;;;;;;8.11;100.00;99150.66;5110690;28;20198;-65
2022/04/18 09:13:31;;;;;;;0.70;0.70;;;;;;;8.15;100.00;99140.31;5109187;28;20202;-64
2022/04/18 09:15:58;;;;;;;1.43;1.40;;;;;;;8.28;100.00;99143.44;5111239;28;20267;-65
2022/04/18 09:18:26;;;;;;;1.00;1.00;;;;;;;8.40;100.00;99141.41;5110613;28;20206;-65
2022/04/18 09:20:54;;;;;;;1.30;1.30;;;;;;;8.49;100.00;99147.19;5111573;28;21714;-65
2022/04/18 09:23:27;;;;;;;1.00;1.00;;;;;;;8.37;100.00;99138.94;5110099;28;20238;-65
2022/04/18 09:25:56;;;;;;;1.83;1.57;;;;;;;8.52;100.00;99150.50;5111958;28;20198;-64
2022/04/18 09:28:27;;;;;;;1.10;1.10;;;;;;;8.57;100.00;99155.47;5111948;28;20211;-65
2022/04/18 09:31:00;;;;;;;1.33;1.30;;;;;;;8.62;100.00;99159.59;5111560;28;20226;-65
2022/04/18 09:33:30;;;;;;;1.00;1.00;;;;;;;8.72;100.00;99152.53;5109845;28;20225;-65
2022/04/18 09:36:16;;;;;;;1.00;1.00;;;;;;;8.79;100.00;99156.56;5111405;28;20662;-64
2022/04/18 09:38:45;;;;;;;0.80;0.80;;;;;;;8.76;100.00;99152.41;5111822;28;20233;-65
2022/04/18 09:41:16;;;;;;;0.87;0.87;;;;;;;8.80;100.00;99158.25;5111890;28;20346;-64
2022/04/18 09:43:47;;;;;;;1.60;1.50;;;;;;;8.74;100.00;99153.31;5109224;28;20218;-64
2022/04/18 09:46:16;;;;;;;0.90;0.90;;;;;;;8.77;100.00;99148.13;5108891;28;20198;-64
2022/04/18 09:48:43;;;;;;;1.10;1.10;;;;;;;8.82;100.00;99152.22;5112431;28;20677;-63
2022/04/18 09:51:12;;;;;;;1.10;1.10;;;;;;;8.72;100.00;99160.19;5107230;28;20207;-64
2022/04/18 09:53:41;;;;;;;1.47;1.47;;;;;;;8.68;100.00;99161.16;5112211;28;20211;-64
2022/04/18 09:56:09;;;;;;;1.10;1.10;;;;;;;8.59;100.00;99148.63;5112276;28;20211;-64
2022/04/18 09:58:37;;;;;;;1.10;1.10;;;;;;;8.59;100.00;99153.72;5112170;28;20218;-64
2022/04/18 10:01:05;;;;;;;1.17;1.17;;;;;;;8.49;100.00;99157.41;5109576;28;20641;-63
2022/04/18 10:03:35;;;;;;;1.40;1.40;;;;;;;8.48;100.00;99155.72;5111964;28;20624;-64
2022/04/18 10:06:03;;;;;;;0.90;0.90;;;;;;;8.56;100.00;99153.81;5112202;28;20293;-64
2022/04/18 10:08:30;;;;;;;1.50;1.50;;;;;;;8.51;100.00;99161.59;5111949;28;20211;-64
2022/04/18 10:10:59;;;;;;;1.40;1.40;;;;;;;8.55;100.00;99162.34;5112236;28;20308;-64
2022/04/18 10:13:26;;;;;;;1.40;1.40;;;;;;;8.57;100.00;99168.25;5111948;28;20290;-64
2022/04/18 10:15:54;;;;;;;1.80;1.70;;;;;;;8.56;100.00;99164.03;5112625;28;20289;-64
2022/04/18 10:18:21;;;;;;;2.23;2.13;;;;;;;8.59;100.00;99164.78;5111698;28;20198;-64
2022/04/18 10:21:04;;;;;;;1.37;1.37;;;;;;;8.38;100.00;99161.06;5111835;28;20198;-64
2022/04/18 10:23:51;;;;;;;2.07;1.97;;;;;;;8.16;100.00;99165.00;5111942;28;20210;-64
2022/04/18 10:26:51;;;;;;;1.87;1.77;;;;;;;8.23;100.00;99163.97;5112064;28;20203;-64
2022/04/18 10:29:23;;;;;;;1.07;1.07;;;;;;;8.14;100.00;99165.91;5111862;28;20199;-64
2022/04/18 10:31:53;;;;;;;2.10;2.00;;;;;;;7.81;100.00;99164.97;5112104;28;20281;-63
2022/04/18 10:34:23;;;;;;;3.13;2.93;;;;;;;7.74;100.00;99168.53;5112292;28;20647;-64
2022/04/18 10:36:55;;;;;;;1.60;1.60;;;;;;;7.58;100.00;99164.66;5111153;28;20205;-64
2022/04/18 10:39:22;;;;;;;1.50;1.50;;;;;;;7.49;100.00;99165.69;5111343;28;20938;-64
2022/04/18 10:41:51;;;;;;;1.60;1.50;;;;;;;7.52;100.00;99146.94;5111500;28;20198;-64
2022/04/18 10:44:19;;;;;;;2.20;2.10;;;;;;;7.67;100.00;99154.22;5109728;28;20702;-64
2022/04/18 10:47:03;;;;;;;2.73;2.53;;;;;;;7.77;100.00;99160.81;5111917;28;20269;-64
2022/04/18 10:49:32;;;;;;;2.63;2.47;;;;;;;7.88;100.00;99146.09;5110986;28;20194;-65
2022/04/18 10:52:08;;;;;;;2.57;2.47;;;;;;;7.89;100.00;99150.31;5111666;28;20354;-64
2022/04/18 10:54:36;;;;;;;3.40;3.30;;;;;;;7.53;100.00;99151.16;5108513;28;20213;-64
2022/04/18 10:57:06;;;;;;;2.93;2.83;;;;;;;7.58;100.00;99141.69;5110463;28;20302;-64
2022/04/18 10:59:34;;;;;;;6.70;6.30;;;;;;;7.62;100.00;99150.97;5111688;28;20670;-64
2022/04/18 11:02:03;;;;;;;3.33;3.23;;;;;;;7.67;100.00;99149.13;5111032;28;20206;-65
2022/04/18 11:04:33;;;;;;;3.07;2.97;;;;;;;7.70;100.00;99146.50;5111529;28;20229;-65
2022/04/18 11:07:03;;;;;;;3.10;2.90;;;;;;;7.85;100.00;99147.00;5111111;28;20778;-65
2022/04/18 11:09:32;;;;;;;4.30;4.10;;;;;;;8.11;100.00;99143.81;5111000;28;20202;-65
2022/04/18 11:12:05;;;;;;;2.60;2.50;;;;;;;8.17;100.00;99150.50;5109617;28;20198;-65
2022/04/18 11:14:54;;;;;;;3.10;2.90;;;;;;;8.38;100.00;99138.06;5111294;28;20234;-65
2022/04/18 11:17:31;;;;;;;2.40;2.20;;;;;;;8.43;100.00;99136.22;5110343;28;20203;-66
2022/04/18 11:20:19;;;;;;;2.43;2.33;;;;;;;8.41;100.00;99142.25;5110720;28;20202;-65
2022/04/18 11:23:16;;;;;;;2.43;2.33;;;;;;;8.18;100.00;99152.16;5110883;28;20222;-64
2022/04/18 11:25:57;;;;;;;1.83;1.83;;;;;;;7.84;100.00;99152.16;5108521;28;20194;-65
2022/04/18 11:28:32;;;;;;;4.97;4.00;;;;;;;7.99;100.00;99151.78;5110512;28;20198;-65
2022/04/18 11:30:59;;;;;;;4.60;4.20;;;;;;;8.21;100.00;99142.72;5109502;28;20293;-66
2022/04/18 11:33:26;;;;;;;2.30;2.20;;;;;;;8.39;100.00;99139.75;5110742;28;20281;-65
2022/04/18 11:36:01;;;;;;;1.80;1.80;;;;;;;8.28;100.00;99139.19;5106216;28;20341;-65
2022/04/18 11:38:30;;;;;;;1.70;1.70;;;;;;;8.38;100.00;99139.78;5108096;28;20261;-65
2022/04/18 11:40:58;;;;;;;2.10;2.00;;;;;;;8.49;100.00;99142.06;5109365;28;20646;-65
2022/04/18 11:43:25;;;;;;;2.30;2.20;;;;;;;8.66;100.00;99134.81;5092131;28;20272;-66
2022/04/18 11:45:51;;;;;;;3.60;3.40;;;;;;;8.37;100.00;99131.28;5107937;28;20225;-65
2022/04/18 11:48:22;;;;;;;5.47;5.10;;;;;;;8.38;100.00;99134.69;5110147;28;20199;-63
2022/04/18 11:50:49;;;;;;;2.53;2.43;;;;;;;8.29;100.00;99128.09;5110226;28;20285;-65
2022/04/18 11:53:16;;;;;;;3.57;3.37;;;;;;;8.50;100.00;99121.59;5108818;28;20195;-66
2022/04/18 11:55:46;;;;;;;2.80;2.70;;;;;;;8.66;100.00;99114.38;5108523;28;20690;-64
2022/04/18 11:58:19;;;;;;;2.30;2.20;;;;;;;8.59;100.00;99123.06;5106135;28;20210;-64